Time;durP1;ratioP1;P1;durP2;ratioP2;P2;SDS_P1;SDS_P2;PMS_P1;PMS_P2;Temp;Humidity;BMP_temperature;BMP_pressure;BME280_temperature;BME280_humidity;BME280_pressure;Samples;Min_cycle;Max_cycle;Signal;HPM_P1;HPM_P2
2021/11/16 00:00:09;;;;;;;38.23;14.23;;;;;;;2.08;83.02;100436.68;1724260;82;21017;-82
2021/11/16 00:02:41;;;;;;;37.33;14.90;;;;;;;2.08;83.27;100439.66;1703857;82;20997;-81
2021/11/16 00:05:09;;;;;;;33.15;16.02;;;;;;;2.08;82.84;100437.96;1715673;83;21005;-85
2021/11/16 00:07:36;;;;;;;33.35;13.68;;;;;;;2.04;82.82;100437.41;1724312;82;21039;-83
2021/11/16 00:10:05;;;;;;;27.75;13.40;;;;;;;2.06;82.08;100437.47;1750335;82;21000;-84
2021/11/16 00:12:32;;;;;;;30.40;14.28;;;;;;;2.03;82.63;100434.80;1724004;82;20978;-85
2021/11/16 00:14:58;;;;;;;36.73;14.40;;;;;;;2.01;81.92;100433.48;1723975;83;21077;-84
2021/11/16 00:17:25;;;;;;;31.55;14.50;;;;;;;1.96;82.34;100420.92;1721300;82;21074;-83
2021/11/16 00:19:52;;;;;;;26.65;13.32;;;;;;;1.93;83.31;100428.50;1723194;83;21015;-85
2021/11/16 00:22:19;;;;;;;31.75;14.85;;;;;;;1.89;82.64;100431.80;1720763;82;21305;-83
2021/11/16 00:25:09;;;;;;;35.25;15.85;;;;;;;1.88;82.67;100430.08;1723044;83;21034;-82
2021/11/16 00:27:36;;;;;;;30.72;14.73;;;;;;;1.85;81.55;100424.45;1718951;83;20939;-83
2021/11/16 00:30:05;;;;;;;28.52;13.45;;;;;;;1.81;82.19;100422.61;1723889;83;20977;-82
2021/11/16 00:32:32;;;;;;;30.32;14.03;;;;;;;1.77;82.31;100420.35;1709949;83;20976;-85
2021/11/16 00:34:59;;;;;;;26.15;11.97;;;;;;;1.76;82.22;100417.31;1708467;83;21035;-84
2021/11/16 00:37:27;;;;;;;33.55;13.93;;;;;;;1.73;81.95;100421.08;1709656;83;20986;-84
2021/11/16 00:40:01;;;;;;;31.87;13.62;;;;;;;1.71;81.77;100432.98;1686899;84;20985;-84
2021/11/16 00:42:29;;;;;;;;;;;;;;;1.69;82.47;100428.22;1709071;84;21131;-84
2021/11/16 00:44:55;;;;;;;29.23;12.55;;;;;;;1.66;82.15;100428.10;1720981;83;20090;-86
2021/11/16 00:47:22;;;;;;;35.50;14.15;;;;;;;1.66;82.32;100428.52;1695507;84;20980;-85
2021/11/16 00:49:52;;;;;;;34.77;14.20;;;;;;;1.65;82.01;100431.50;1712419;83;21031;-85
2021/11/16 00:52:21;;;;;;;35.45;13.85;;;;;;;1.67;82.18;100433.70;1722951;83;21058;-82
2021/11/16 00:54:48;;;;;;;34.50;14.87;;;;;;;1.66;82.01;100434.93;1723563;80;20966;-83
2021/11/16 00:57:15;;;;;;;31.12;12.78;;;;;;;1.56;81.58;100432.05;1722951;83;20996;-84
2021/11/16 00:59:41;;;;;;;25.85;13.15;;;;;;;1.49;81.52;100435.64;1718253;81;21097;-85
2021/11/16 01:02:07;;;;;;;33.60;15.72;;;;;;;1.41;81.46;100433.25;1737001;81;21032;-85
2021/11/16 01:04:34;;;;;;;39.40;13.88;;;;;;;1.31;81.53;100430.39;1748440;81;20992;-83
2021/11/16 01:07:02;;;;;;;35.17;14.40;;;;;;;1.17;81.52;100435.05;1710235;84;21048;-84
2021/11/16 01:09:28;;;;;;;27.42;13.80;;;;;;;1.06;80.74;100435.50;1727318;82;20985;-84
2021/11/16 01:11:55;;;;;;;32.08;14.30;;;;;;;0.95;81.28;100429.56;1746349;81;21043;-85
2021/11/16 01:14:21;;;;;;;32.35;15.80;;;;;;;0.91;81.02;100437.09;1748846;80;21012;-84
2021/11/16 01:16:48;;;;;;;34.95;15.78;;;;;;;0.84;81.25;100433.87;1735702;82;21049;-85
2021/11/16 01:19:15;;;;;;;38.33;15.38;;;;;;;0.77;81.74;100436.19;1713134;81;21039;-83
2021/11/16 01:21:41;;;;;;;35.08;14.70;;;;;;;0.69;81.73;100440.58;1736196;81;21055;-85
2021/11/16 01:24:09;;;;;;;40.80;16.97;;;;;;;0.61;82.15;100435.17;1727545;83;21054;-83
2021/11/16 01:26:36;;;;;;;38.58;17.00;;;;;;;0.54;81.75;100435.38;1730988;81;21024;-84
2021/11/16 01:29:05;;;;;;;35.75;17.07;;;;;;;0.45;81.98;100439.27;1685473;82;21043;-84
2021/11/16 01:31:32;;;;;;;44.53;19.50;;;;;;;0.39;81.77;100439.50;1736363;81;20968;-81
2021/11/16 01:34:01;;;;;;;38.83;18.77;;;;;;;0.30;82.56;100440.83;1738074;83;21062;-82
2021/11/16 01:36:27;;;;;;;42.98;18.07;;;;;;;0.24;82.79;100444.44;1744293;81;20987;-85
2021/11/16 01:38:57;;;;;;;37.03;17.25;;;;;;;0.18;83.10;100439.98;1712899;83;21055;-85
2021/11/16 01:41:25;;;;;;;33.70;17.15;;;;;;;0.14;83.62;100445.77;1738116;81;20994;-81
2021/11/16 01:43:52;;;;;;;35.13;17.00;;;;;;;0.09;83.18;100444.33;1712814;83;21038;-82
2021/11/16 01:46:20;;;;;;;38.83;17.15;;;;;;;0.06;82.83;100436.94;1733814;82;21041;-84
2021/11/16 01:48:55;;;;;;;35.13;14.80;;;;;;;0.01;84.33;100432.93;1733259;83;21054;-82
2021/11/16 01:51:26;;;;;;;37.30;17.90;;;;;;;-0.02;83.77;100429.86;1749314;82;21007;-81
2021/11/16 01:54:01;;;;;;;41.45;17.52;;;;;;;-0.03;83.84;100433.22;1727178;83;21079;-83
2021/11/16 01:56:26;;;;;;;40.00;17.07;;;;;;;-0.03;82.89;100440.02;1723536;81;21018;-82
2021/11/16 01:58:53;;;;;;;37.90;18.00;;;;;;;-0.01;83.82;100436.70;1708229;82;21070;-82
2021/11/16 02:01:19;;;;;;;40.55;17.52;;;;;;;0.01;83.61;100438.46;1715254;84;20969;-82
2021/11/16 02:03:46;;;;;;;33.83;15.88;;;;;;;0.03;83.75;100435.14;1678863;84;21034;-82
2021/11/16 02:06:23;;;;;;;38.48;17.05;;;;;;;0.05;83.34;100436.07;1689714;85;21086;-82
2021/11/16 02:08:53;;;;;;;52.58;19.07;;;;;;;0.07;83.66;100435.72;1676299;84;21067;-82
2021/11/16 02:11:22;;;;;;;44.38;19.35;;;;;;;0.05;83.24;100433.52;1702165;84;21054;-84
2021/11/16 02:13:50;;;;;;;38.78;17.42;;;;;;;0.05;83.71;100436.07;1692067;80;21023;-84
2021/11/16 02:16:17;;;;;;;35.03;15.13;;;;;;;0.03;83.57;100432.59;1685512;84;21047;-83
2021/11/16 02:18:44;;;;;;;37.50;16.15;;;;;;;0.02;83.75;100436.35;1664544;83;21007;-84
2021/11/16 02:21:11;;;;;;;37.90;17.32;;;;;;;0.01;83.74;100438.05;1683412;84;21163;-84
2021/11/16 02:23:40;;;;;;;45.03;16.05;;;;;;;-0.01;83.43;100432.00;1702928;81;21259;-84
2021/11/16 02:26:08;;;;;;;49.93;16.07;;;;;;;-0.05;83.66;100433.56;1695501;84;21063;-83
2021/11/16 02:28:36;;;;;;;42.80;16.57;;;;;;;-0.05;83.49;100438.67;1702362;84;21019;-85
2021/11/16 02:31:05;;;;;;;46.20;16.15;;;;;;;-0.05;83.52;100434.84;1673518;82;21031;-84
2021/11/16 02:33:32;;;;;;;45.17;17.37;;;;;;;-0.09;83.30;100432.98;1694356;84;20997;-82
2021/11/16 02:35:58;;;;;;;34.25;14.95;;;;;;;-0.14;83.26;100426.83;1692588;84;21025;-82
2021/11/16 02:38:25;;;;;;;38.08;16.00;;;;;;;-0.17;83.08;100427.97;1655231;86;21009;-82
2021/11/16 02:40:53;;;;;;;41.40;17.90;;;;;;;-0.22;82.84;100430.73;1694192;83;21023;-80
2021/11/16 02:43:21;;;;;;;37.25;16.32;;;;;;;-0.29;82.48;100428.77;1703002;84;21085;-83
2021/11/16 02:45:49;;;;;;;39.90;17.27;;;;;;;-0.37;82.13;100427.19;1705147;80;21042;-81
2021/11/16 02:48:15;;;;;;;34.90;16.32;;;;;;;-0.45;82.73;100424.73;1673477;86;21043;-84
2021/11/16 02:50:50;;;;;;;45.40;17.77;;;;;;;-0.48;82.74;100423.31;1684863;81;20983;-85
2021/11/16 02:53:18;;;;;;;37.23;15.88;;;;;;;-0.51;82.99;100421.52;1705715;84;21013;-82
2021/11/16 02:55:45;;;;;;;39.83;16.75;;;;;;;-0.52;83.04;100420.16;1674464;86;21606;-85
2021/11/16 02:58:14;;;;;;;42.55;18.15;;;;;;;-0.57;82.95;100416.16;1669630;83;21434;-84
2021/11/16 03:00:45;;;;;;;39.85;16.05;;;;;;;-0.57;83.13;100410.19;1669431;85;21017;-83
2021/11/16 03:03:12;;;;;;;37.13;17.17;;;;;;;-0.58;83.37;100413.12;1669208;83;21013;-83
2021/11/16 03:05:39;;;;;;;38.35;17.37;;;;;;;-0.59;83.56;100415.64;1674415;85;21100;-85
2021/11/16 03:08:19;;;;;;;37.40;17.17;;;;;;;-0.61;83.35;100410.45;1697605;83;21021;-82
2021/11/16 03:10:45;;;;;;;41.85;17.65;;;;;;;-0.60;83.35;100417.30;1687185;81;20972;-83
2021/11/16 03:13:13;;;;;;;41.15;18.52;;;;;;;-0.59;83.46;100416.91;1660438;87;21066;-83
2021/11/16 03:15:41;;;;;;;33.60;15.38;;;;;;;-0.59;83.25;100422.02;1675272;86;21086;-84
2021/11/16 03:18:09;;;;;;;39.88;18.52;;;;;;;-0.63;83.06;100423.16;1674936;82;21048;-83
2021/11/16 03:20:36;;;;;;;39.40;16.35;;;;;;;-0.65;83.04;100419.67;1697419;83;21071;-82
2021/11/16 03:23:16;;;;;;;44.73;17.87;;;;;;;-0.66;83.20;100414.11;1686939;84;21063;-83
2021/11/16 03:25:34;;;;;;;42.90;18.87;;;;;;;-0.70;82.15;100414.77;1697917;80;21066;-82
2021/11/16 03:28:05;;;;;;;37.55;16.82;;;;;;;-0.73;83.04;100416.34;1653147;86;21091;-83
2021/11/16 03:30:30;;;;;;;46.25;19.57;;;;;;;-0.74;83.19;100419.69;1652415;84;21095;-82
2021/11/16 03:32:57;;;;;;;52.40;23.42;;;;;;;-0.75;83.05;100426.48;1683808;84;21044;-84
2021/11/16 03:35:24;;;;;;;52.03;23.15;;;;;;;-0.84;82.87;100410.36;1680348;85;21494;-83
2021/11/16 03:37:55;;;;;;;48.33;19.85;;;;;;;-0.83;82.34;100421.47;1666269;82;21069;-83
2021/11/16 03:40:22;;;;;;;49.03;18.87;;;;;;;-0.86;82.75;100417.49;1663136;86;21070;-83
2021/11/16 03:42:50;;;;;;;51.08;18.10;;;;;;;-0.88;82.90;100411.04;1691667;84;21078;-82
2021/11/16 03:45:21;;;;;;;43.90;19.35;;;;;;;-0.90;83.23;100410.11;1696786;82;21036;-84
2021/11/16 03:47:49;;;;;;;49.83;18.52;;;;;;;-0.90;83.33;100408.83;1696138;82;21058;-83
2021/11/16 03:50:20;;;;;;;40.17;17.73;;;;;;;-0.90;83.59;100411.80;1677085;81;21014;-81
2021/11/16 03:52:53;;;;;;;38.58;19.57;;;;;;;-0.92;83.64;100406.61;1706977;83;21099;-82
2021/11/16 03:55:19;;;;;;;47.30;19.25;;;;;;;-0.91;83.33;100410.06;1669595;81;21311;-83
2021/11/16 03:57:46;;;;;;;48.30;19.50;;;;;;;-0.91;83.67;100407.52;1703266;84;21063;-83
2021/11/16 04:00:17;;;;;;;42.15;17.52;;;;;;;-0.91;83.24;100406.23;1678874;83;21036;-83
2021/11/16 04:02:45;;;;;;;48.65;20.70;;;;;;;-0.95;82.98;100400.53;1718852;82;21015;-83
2021/11/16 04:05:12;;;;;;;41.18;17.73;;;;;;;-0.98;83.44;100410.60;1746426;82;21060;-83
2021/11/16 04:07:40;;;;;;;61.58;20.45;;;;;;;-1.00;83.13;100407.56;1739294;82;20976;-83
2021/11/16 04:10:11;;;;;;;52.88;22.15;;;;;;;-0.98;83.91;100405.08;1740475;79;21368;-83
2021/11/16 04:12:37;;;;;;;49.38;21.50;;;;;;;-0.97;83.83;100404.70;1732897;79;21012;-84
2021/11/16 04:15:05;;;;;;;55.05;20.20;;;;;;;-0.98;83.79;100410.19;1734713;81;20970;-83
2021/11/16 04:17:32;;;;;;;44.60;17.62;;;;;;;-0.97;84.80;100405.57;1736916;79;21091;-83
2021/11/16 04:20:00;;;;;;;38.10;15.88;;;;;;;-0.95;83.88;100401.39;1739443;81;20989;-83
2021/11/16 04:22:27;;;;;;;38.00;15.43;;;;;;;-0.93;83.87;100405.30;1732601;81;21115;-83
2021/11/16 04:24:53;;;;;;;36.73;15.05;;;;;;;-0.91;84.31;100403.69;1732923;82;20988;-83
2021/11/16 04:27:20;;;;;;;38.67;15.85;;;;;;;-0.87;83.84;100408.11;1733016;83;20989;-83
2021/11/16 04:29:46;;;;;;;37.88;17.35;;;;;;;-0.84;84.22;100403.97;1732750;83;21343;-83
2021/11/16 04:32:13;;;;;;;47.88;17.37;;;;;;;-0.78;84.40;100398.25;1732684;78;21071;-83
2021/11/16 04:34:40;;;;;;;48.92;19.17;;;;;;;-0.72;84.49;100391.26;1696842;80;21071;-83
2021/11/16 04:37:06;;;;;;;59.48;21.00;;;;;;;-0.71;84.12;100399.41;1703992;83;21011;-83
2021/11/16 04:39:33;;;;;;;61.48;25.70;;;;;;;-0.74;83.94;100396.70;1731780;80;21031;-83
2021/11/16 04:41:59;;;;;;;65.35;24.63;;;;;;;-0.74;84.00;100398.84;1738050;81;21036;-83
2021/11/16 04:44:26;;;;;;;58.85;23.07;;;;;;;-0.75;83.77;100408.61;1732875;83;20966;-84
2021/11/16 04:46:53;;;;;;;69.82;26.35;;;;;;;-0.77;83.80;100415.34;1732912;83;21052;-83
2021/11/16 04:49:33;;;;;;;62.35;23.18;;;;;;;-0.77;83.74;100424.69;1732873;83;21027;-81
2021/11/16 04:52:07;;;;;;;60.03;21.95;;;;;;;-0.79;83.22;100422.48;1739378;82;21039;-83
2021/11/16 05:02:39;;;;;;;39.10;13.95;;;;;;;-0.96;83.99;100426.44;1695753;83;21083;-83
2021/11/16 05:05:16;;;;;;;37.15;14.55;;;;;;;-0.98;83.99;100421.67;1732827;83;21001;-83
2021/11/16 05:07:55;;;;;;;36.17;13.58;;;;;;;-0.95;84.35;100428.62;1714850;83;20997;-83
2021/11/16 05:10:19;;;;;;;34.48;13.58;;;;;;;-0.93;84.54;100422.76;1732284;82;20944;-82
2021/11/16 05:12:46;;;;;;;35.88;14.85;;;;;;;-0.88;84.42;100422.94;1744947;79;21055;-83
2021/11/16 05:15:16;;;;;;;43.30;18.25;;;;;;;-0.86;84.47;100417.49;1738352;82;21020;-82
2021/11/16 05:17:48;;;;;;;43.40;20.88;;;;;;;-0.84;84.29;100419.70;1733012;81;21032;-83
2021/11/16 05:20:18;;;;;;;58.33;24.15;;;;;;;-0.84;84.16;100419.30;1743594;81;20996;-81
2021/11/16 05:22:49;;;;;;;65.30;19.48;;;;;;;-0.81;84.40;100427.52;1740604;80;21001;-83
2021/11/16 05:25:16;;;;;;;54.70;22.00;;;;;;;-0.80;84.31;100422.86;1756187;79;21019;-83
2021/11/16 05:27:43;;;;;;;61.25;24.63;;;;;;;-0.81;83.87;100424.55;1743221;81;21430;-83
2021/11/16 05:30:13;;;;;;;65.72;24.50;;;;;;;-0.86;83.33;100423.87;1758724;80;21030;-82
2021/11/16 05:32:41;;;;;;;77.08;30.32;;;;;;;-0.91;83.47;100424.97;1745722;81;21000;-83
2021/11/16 05:35:10;;;;;;;68.55;24.52;;;;;;;-0.93;83.56;100419.34;1752342;81;21015;-83
2021/11/16 05:37:39;;;;;;;74.17;28.20;;;;;;;-0.95;83.36;100426.92;1764857;81;20960;-82
2021/11/16 05:40:07;;;;;;;50.67;17.77;;;;;;;-0.94;83.72;100427.79;1748733;81;21005;-83
2021/11/16 05:42:34;;;;;;;34.18;14.13;;;;;;;-0.94;84.30;100429.07;1748909;81;21052;-82
2021/11/16 05:45:03;;;;;;;53.73;22.58;;;;;;;-0.96;84.84;100425.58;1717925;82;21018;-82
2021/11/16 05:47:29;;;;;;;42.27;15.98;;;;;;;-0.95;84.18;100428.20;1729299;81;21004;-82
2021/11/16 05:49:55;;;;;;;49.18;17.73;;;;;;;-0.91;84.54;100427.94;1739806;82;21031;-82
2021/11/16 05:52:23;;;;;;;50.50;19.57;;;;;;;-0.87;84.52;100424.70;1749188;81;21436;-82
2021/11/16 05:54:52;;;;;;;52.60;21.65;;;;;;;-0.84;84.79;100426.09;1744743;81;21055;-81
2021/11/16 05:57:19;;;;;;;44.45;19.50;;;;;;;-0.79;84.67;100427.58;1739830;83;21025;-83
2021/11/16 05:59:46;;;;;;;42.98;21.33;;;;;;;-0.73;84.53;100430.39;1761517;81;21160;-83
2021/11/16 06:02:12;;;;;;;44.35;18.80;;;;;;;-0.67;85.30;100423.84;1769276;81;21056;-82
2021/11/16 06:04:40;;;;;;;43.00;18.77;;;;;;;-0.63;85.27;100428.27;1763573;81;21059;-83
2021/11/16 06:07:08;;;;;;;44.08;16.65;;;;;;;-0.57;84.80;100430.63;1740765;81;21060;-84
2021/11/16 06:09:35;;;;;;;37.67;15.50;;;;;;;-0.53;84.96;100432.48;1752870;81;21004;-82
2021/11/16 06:12:04;;;;;;;37.85;14.63;;;;;;;-0.49;85.64;100434.36;1718960;83;21059;-83
2021/11/16 06:14:31;;;;;;;29.77;13.58;;;;;;;-0.45;84.79;100437.50;1740527;81;20993;-82
2021/11/16 06:16:58;;;;;;;34.23;13.60;;;;;;;-0.43;85.30;100438.02;1740710;81;20995;-81
2021/11/16 06:19:26;;;;;;;38.95;15.08;;;;;;;-0.35;84.81;100451.11;1746905;80;20996;-82
2021/11/16 06:21:53;;;;;;;32.85;13.60;;;;;;;-0.29;85.00;100442.83;1750118;81;21060;-82
2021/11/16 06:24:20;;;;;;;30.68;14.38;;;;;;;-0.22;85.54;100443.52;1736417;83;20992;-83
2021/11/16 06:26:47;;;;;;;33.38;15.35;;;;;;;-0.13;85.43;100451.56;1738193;81;21064;-82
2021/11/16 06:29:14;;;;;;;32.93;15.53;;;;;;;-0.06;85.63;100446.27;1740211;83;20971;-82
2021/11/16 06:31:41;;;;;;;37.63;15.03;;;;;;;0.02;85.88;100446.20;1742732;81;21012;-82
2021/11/16 06:34:09;;;;;;;45.67;17.90;;;;;;;0.12;85.76;100460.19;1740317;82;21087;-82
2021/11/16 06:36:40;;;;;;;49.90;20.48;;;;;;;0.18;85.72;100461.31;1741777;81;21043;-81
2021/11/16 06:39:14;;;;;;;47.40;18.92;;;;;;;0.25;85.82;100455.16;1755321;81;21031;-82
2021/11/16 06:41:41;;;;;;;;;;;;;;;0.29;85.47;100456.59;1747995;81;20977;-81
2021/11/16 06:44:10;;;;;;;77.35;27.40;;;;;;;0.37;86.04;100455.61;1738159;81;20122;-80
2021/11/16 06:46:39;;;;;;;60.30;20.68;;;;;;;0.41;85.60;100452.77;1719325;81;21829;-83
2021/11/16 06:49:08;;;;;;;54.75;22.15;;;;;;;0.47;85.40;100448.74;1744944;81;20992;-84
2021/11/16 06:51:38;;;;;;;52.13;21.02;;;;;;;0.52;85.79;100457.89;1749039;81;20980;-82
2021/11/16 06:54:11;;;;;;;37.05;18.02;;;;;;;0.57;85.78;100449.95;1739359;81;21020;-84
2021/11/16 06:56:40;;;;;;;52.33;19.60;;;;;;;0.61;85.89;100445.83;1738876;81;21065;-81
2021/11/16 06:59:07;;;;;;;38.40;16.02;;;;;;;0.67;86.01;100446.05;1744832;81;21507;-81
2021/11/16 07:01:37;;;;;;;44.45;17.82;;;;;;;0.71;85.75;100438.53;1745577;81;21051;-80
2021/11/16 07:04:09;;;;;;;41.95;17.32;;;;;;;0.78;86.06;100442.20;1747781;81;21341;-81
2021/11/16 07:06:38;;;;;;;36.28;15.95;;;;;;;0.84;85.93;100447.53;1758650;81;21012;-80
2021/11/16 07:09:06;;;;;;;35.65;17.30;;;;;;;0.89;85.68;100442.57;1751254;81;21052;-80
2021/11/16 07:11:36;;;;;;;42.65;18.32;;;;;;;0.91;86.01;100434.53;1753855;81;21035;-82
2021/11/16 07:14:06;;;;;;;40.23;15.45;;;;;;;0.96;85.44;100435.58;1747572;81;21055;-79
2021/11/16 07:16:41;;;;;;;34.73;15.55;;;;;;;0.97;85.71;100432.19;1755186;81;21027;-82
2021/11/16 07:19:10;;;;;;;33.53;15.40;;;;;;;1.02;85.47;100428.53;1752056;81;21062;-81
2021/11/16 07:21:52;;;;;;;43.38;15.60;;;;;;;1.05;85.63;100422.21;1751455;81;21123;-81
2021/11/16 07:24:24;;;;;;;36.00;15.38;;;;;;;1.11;85.19;100422.42;1753543;81;21056;-81
2021/11/16 07:27:04;;;;;;;33.23;14.25;;;;;;;1.19;85.35;100413.30;1755281;81;21040;-79
2021/11/16 07:29:45;;;;;;;38.95;16.70;;;;;;;1.26;85.59;100413.13;1746717;81;21035;-81
2021/11/16 07:32:23;;;;;;;34.15;15.10;;;;;;;1.31;85.55;100408.62;1746048;81;21027;-81
2021/11/16 07:34:51;;;;;;;34.98;14.95;;;;;;;1.39;85.46;100405.89;1740922;81;21106;-80
2021/11/16 07:37:26;;;;;;;34.48;15.95;;;;;;;1.46;85.63;100407.38;1746088;81;21038;-84
2021/11/16 07:40:00;;;;;;;35.70;16.80;;;;;;;1.53;85.45;100408.02;1748752;81;21575;-78
2021/11/16 07:42:29;;;;;;;;;;;;;;;1.60;85.32;100411.25;1753446;81;20942;-85
2021/11/16 07:45:12;;;;;;;37.30;16.30;;;;;;;1.64;85.14;100400.27;1741751;82;20125;-85
2021/11/16 07:48:03;;;;;;;33.42;14.80;;;;;;;1.67;84.94;100395.25;1740816;81;21055;-83
2021/11/16 07:50:50;;;;;;;34.40;14.50;;;;;;;1.70;84.90;100397.89;1749135;81;21002;-83
2021/11/16 07:53:30;;;;;;;28.67;12.80;;;;;;;1.75;84.98;100398.92;1758883;81;20982;-84
2021/11/16 07:56:14;;;;;;;37.67;15.60;;;;;;;1.81;84.48;100394.41;1750947;78;21066;-83
2021/11/16 07:58:58;;;;;;;36.55;14.63;;;;;;;1.89;84.77;100394.61;1786731;78;20940;-84
2021/11/16 08:04:25;;;;;;;33.73;13.35;;;;;;;2.04;85.00;100386.11;1821938;77;21008;-81
2021/11/16 08:09:28;;;;;;;31.50;15.10;;;;;;;2.25;84.41;100384.60;1819328;78;20973;-81
2021/11/16 08:11:59;;;;;;;45.65;18.15;;;;;;;2.38;84.33;100383.25;1819736;78;21068;-83
2021/11/16 08:14:19;;;;;;;35.65;17.25;;;;;;;2.48;84.27;100379.25;1821404;78;21033;-84
2021/11/16 08:16:59;;;;;;;43.23;18.27;;;;;;;2.55;84.02;100382.03;1816705;78;21254;-84
2021/11/16 08:19:32;;;;;;;37.10;17.57;;;;;;;2.63;83.97;100382.25;1821767;78;21001;-86
2021/11/16 08:22:10;;;;;;;40.27;18.23;;;;;;;2.73;83.71;100379.52;1738582;78;21100;-90
2021/11/16 08:24:41;;;;;;;38.70;17.98;;;;;;;2.80;83.43;100381.41;1723309;81;21162;-90
2021/11/16 08:27:22;;;;;;;38.85;18.05;;;;;;;2.84;83.31;100367.81;1645395;81;21123;-88
2021/11/16 08:29:54;;;;;;;39.90;18.45;;;;;;;2.90;83.71;100374.82;1711896;80;21092;-90
2021/11/16 08:32:23;;;;;;;34.60;17.15;;;;;;;2.97;83.52;100371.17;1740680;81;21181;-85
2021/11/16 08:34:54;;;;;;;40.40;15.95;;;;;;;3.07;83.26;100371.42;1756946;78;20968;-85
2021/11/16 08:37:26;;;;;;;35.48;15.90;;;;;;;3.15;83.69;100377.62;1692206;80;21106;-88
2021/11/16 08:40:00;;;;;;;34.88;15.30;;;;;;;3.23;83.34;100369.69;1675771;84;21119;-85
2021/11/16 08:42:30;;;;;;;44.48;17.87;;;;;;;3.35;83.34;100363.98;1691550;82;21126;-87
2021/11/16 08:45:08;;;;;;;48.17;17.45;;;;;;;3.51;83.37;100372.94;1703469;83;22155;-88
2021/11/16 08:47:43;;;;;;;52.88;17.15;;;;;;;3.65;83.21;100366.83;1683083;81;21162;-88
2021/11/16 08:50:32;;;;;;;43.45;18.45;;;;;;;3.83;83.25;100370.24;1684292;83;21761;-84
2021/11/16 08:53:02;;;;;;;37.30;16.62;;;;;;;3.99;83.09;100356.88;1648140;81;21164;-87
2021/11/16 08:55:33;;;;;;;39.60;16.57;;;;;;;4.16;83.12;100353.39;1653305;85;21022;-83
2021/11/16 08:58:00;;;;;;;49.10;18.45;;;;;;;4.31;82.98;100353.69;1631922;86;21024;-83
2021/11/16 09:00:34;;;;;;;40.12;18.20;;;;;;;4.46;82.88;100350.56;1657768;84;21004;-85
2021/11/16 09:03:12;;;;;;;36.48;16.48;;;;;;;4.64;82.44;100338.46;1675319;83;21617;-88
2021/11/16 09:05:44;;;;;;;36.95;17.40;;;;;;;4.80;81.81;100335.75;1647181;83;21269;-89
2021/11/16 09:08:18;;;;;;;36.73;16.62;;;;;;;4.98;81.87;100333.92;1673402;81;21176;-88
2021/11/16 09:10:47;;;;;;;33.18;15.95;;;;;;;5.13;81.39;100326.84;1712773;81;21110;-89
2021/11/16 09:13:17;;;;;;;32.65;16.27;;;;;;;5.27;80.97;100326.68;1698431;83;21005;-83
2021/11/16 09:15:49;;;;;;;41.18;17.62;;;;;;;5.43;80.83;100323.92;1706001;82;20983;-83
2021/11/16 09:18:36;;;;;;;34.83;15.78;;;;;;;5.55;80.98;100322.81;1689018;82;21022;-83
2021/11/16 09:21:11;;;;;;;37.20;17.75;;;;;;;5.69;80.57;100316.97;1713308;82;21530;-82
2021/11/16 09:23:50;;;;;;;32.90;16.45;;;;;;;5.82;80.29;100316.73;1710317;84;21528;-81
2021/11/16 09:29:06;;;;;;;37.13;17.55;;;;;;;6.04;79.13;100320.06;1707943;82;21047;-85
2021/11/16 09:31:37;;;;;;;42.30;16.17;;;;;;;6.00;79.02;100298.93;1694449;83;21095;-85
2021/11/16 09:34:17;;;;;;;39.35;18.40;;;;;;;6.21;79.32;100305.20;1713503;81;21032;-82
2021/11/16 09:36:58;;;;;;;38.78;17.57;;;;;;;6.30;78.49;100299.72;1708722;84;21014;-83
2021/11/16 09:39:32;;;;;;;38.20;16.77;;;;;;;6.43;78.68;100306.34;1708463;82;21019;-81
2021/11/16 09:42:03;;;;;;;33.40;16.12;;;;;;;6.59;77.22;100300.91;1688007;81;21087;-87
2021/11/16 09:44:42;;;;;;;34.18;14.25;;;;;;;6.72;77.86;100297.58;1691665;79;21135;-89
2021/11/16 09:47:25;;;;;;;31.90;13.08;;;;;;;6.85;77.40;100295.56;1707232;83;20988;-84
2021/11/16 09:49:59;;;;;;;25.97;12.13;;;;;;;7.01;77.38;100291.39;1711239;83;21108;-80
2021/11/16 09:52:46;;;;;;;27.37;12.03;;;;;;;7.14;76.31;100286.77;1696645;83;21083;-81
2021/11/16 09:55:24;;;;;;;31.97;13.70;;;;;;;7.30;76.92;100281.69;1703268;83;21013;-83
2021/11/16 09:58:02;;;;;;;30.68;13.30;;;;;;;7.50;76.35;100277.95;1697822;83;21063;-79
2021/11/16 10:00:42;;;;;;;33.63;15.00;;;;;;;7.67;74.29;100280.66;1700779;83;21041;-83
2021/11/16 10:03:13;;;;;;;32.53;14.38;;;;;;;7.81;73.06;100272.96;1706568;83;21012;-81
2021/11/16 10:05:54;;;;;;;31.73;15.45;;;;;;;7.91;71.97;100261.34;1696734;83;21055;-85
2021/11/16 10:08:23;;;;;;;32.23;16.10;;;;;;;8.01;73.24;100267.87;1708636;83;21035;-80
2021/11/16 10:10:54;;;;;;;28.85;15.18;;;;;;;8.12;72.72;100263.17;1706410;83;21023;-82
2021/11/16 10:13:28;;;;;;;26.90;13.62;;;;;;;8.21;72.45;100261.47;1701260;83;21024;-84
2021/11/16 10:15:59;;;;;;;25.68;14.20;;;;;;;8.33;71.16;100262.80;1700903;84;21016;-83
2021/11/16 10:18:28;;;;;;;30.35;13.75;;;;;;;8.42;72.26;100253.79;1698681;83;21167;-80
2021/11/16 10:20:56;;;;;;;31.27;14.33;;;;;;;8.47;70.66;100250.76;1700465;83;21051;-80
2021/11/16 10:23:37;;;;;;;28.52;13.75;;;;;;;8.57;70.11;100243.87;1704758;83;20972;-81
2021/11/16 10:26:06;;;;;;;27.48;14.07;;;;;;;8.63;66.51;100239.98;1702907;83;21076;-82
2021/11/16 10:28:37;;;;;;;30.02;14.70;;;;;;;8.73;68.30;100240.45;1697299;83;21045;-80
2021/11/16 10:31:06;;;;;;;29.50;15.20;;;;;;;8.79;67.90;100236.97;1693608;83;21000;-80
2021/11/16 10:33:37;;;;;;;34.43;16.20;;;;;;;8.83;68.07;100234.81;1690368;83;21051;-81
2021/11/16 10:36:07;;;;;;;31.75;14.87;;;;;;;8.94;68.05;100225.75;1696572;83;21045;-81
2021/11/16 10:38:40;;;;;;;36.10;14.93;;;;;;;9.02;69.13;100216.67;1690595;83;21076;-80
2021/11/16 10:41:14;;;;;;;31.60;14.95;;;;;;;9.15;69.20;100224.85;1696862;83;21066;-81
2021/11/16 10:43:57;;;;;;;35.13;15.75;;;;;;;9.27;67.79;100219.67;1688409;83;22228;-81
2021/11/16 10:46:31;;;;;;;31.60;14.23;;;;;;;9.42;68.07;100214.02;1672589;84;21130;-81
2021/11/16 10:49:02;;;;;;;31.62;14.10;;;;;;;9.57;68.00;100215.27;1670394;84;21019;-80
2021/11/16 10:51:33;;;;;;;28.52;14.80;;;;;;;9.70;67.98;100213.05;1680719;84;21033;-81
2021/11/16 10:54:02;;;;;;;27.75;14.13;;;;;;;9.75;65.69;100207.41;1669287;85;21095;-82
2021/11/16 10:56:33;;;;;;;35.83;14.20;;;;;;;9.84;64.72;100196.11;1681383;83;21051;-80
2021/11/16 10:59:07;;;;;;;34.03;14.38;;;;;;;9.93;64.62;100196.08;1682489;84;21104;-83
2021/11/16 11:01:50;;;;;;;29.50;14.23;;;;;;;10.06;66.86;100199.91;1702690;82;21059;-82
2021/11/16 11:04:23;;;;;;;29.80;13.50;;;;;;;10.20;63.35;100194.62;1702941;83;21318;-83
2021/11/16 11:06:50;;;;;;;31.65;14.15;;;;;;;10.25;65.14;100191.58;1708396;83;21551;-83
2021/11/16 11:09:22;;;;;;;34.25;15.32;;;;;;;10.33;62.73;100191.12;1706420;82;21022;-84
2021/11/16 11:11:54;;;;;;;29.65;14.75;;;;;;;10.43;65.07;100186.28;1705014;82;20992;-86
2021/11/16 11:14:38;;;;;;;28.20;15.05;;;;;;;10.53;64.55;100181.44;1710537;83;21068;-83
2021/11/16 11:17:16;;;;;;;30.75;15.55;;;;;;;10.62;62.99;100178.34;1703242;82;21089;-84
2021/11/16 11:19:44;;;;;;;26.05;13.05;;;;;;;10.71;61.18;100173.08;1671176;84;21133;-82
2021/11/16 11:22:23;;;;;;;33.95;15.43;;;;;;;10.82;63.11;100176.42;1706801;83;21004;-82
2021/11/16 11:27:42;;;;;;;33.30;15.58;;;;;;;11.10;63.11;100167.95;1714496;82;21056;-82
2021/11/16 11:30:18;;;;;;;33.67;15.38;;;;;;;11.25;60.22;100163.00;1700413;82;21089;-80
2021/11/16 11:32:52;;;;;;;33.08;14.15;;;;;;;11.40;61.37;100158.08;1708855;83;20970;-87
2021/11/16 11:35:23;;;;;;;34.90;15.55;;;;;;;11.65;62.66;100153.42;1703875;83;21015;-85
2021/11/16 11:37:58;;;;;;;30.37;15.15;;;;;;;12.13;60.72;100147.14;1661521;83;21090;-80
2021/11/16 11:40:37;;;;;;;35.78;14.98;;;;;;;12.92;56.40;100151.11;1703271;82;21071;-80
2021/11/16 11:43:20;;;;;;;30.45;15.20;;;;;;;13.60;56.98;100141.55;1713321;82;21060;-83
2021/11/16 11:45:47;;;;;;;;;;;;;;;14.58;58.49;100130.62;1710926;83;21055;-82
2021/11/16 11:48:21;;;;;;;27.90;15.13;;;;;;;15.36;47.92;100129.02;1691921;83;20119;-82